sensor_id;sensor_type;location;lat;lon;timestamp;P1;durP1;ratioP1;P2;durP2;ratioP2
1088;SDS011;533;53.556;9.990;2022-11-10T00:01:02;13.37;;;6.23;;
1088;SDS011;533;53.556;9.990;2022-11-10T00:03:53;10.23;;;5.80;;
1088;SDS011;533;53.556;9.990;2022-11-10T00:06:45;18.63;;;8.00;;
1088;SDS011;533;53.556;9.990;2022-11-10T00:09:36;14.43;;;7.30;;
1088;SDS011;533;53.556;9.990;2022-11-10T00:12:26;11.23;;;7.07;;
1088;SDS011;533;53.556;9.990;2022-11-10T00:15:17;17.90;;;7.10;;
1088;SDS011;533;53.556;9.990;2022-11-10T00:18:26;14.37;;;7.97;;
1088;SDS011;533;53.556;9.990;2022-11-10T00:21:17;12.60;;;7.03;;
1088;SDS011;533;53.556;9.990;2022-11-10T00:24:07;12.20;;;6.70;;
1088;SDS011;533;53.556;9.990;2022-11-10T00:26:58;11.97;;;6.83;;
1088;SDS011;533;53.556;9.990;2022-11-10T00:29:49;11.13;;;7.77;;
1088;SDS011;533;53.556;9.990;2022-11-10T00:32:40;14.03;;;7.47;;
1088;SDS011;533;53.556;9.990;2022-11-10T00:35:30;14.30;;;6.67;;
1088;SDS011;533;53.556;9.990;2022-11-10T00:38:21;14.47;;;7.57;;
1088;SDS011;533;53.556;9.990;2022-11-10T00:41:11;17.73;;;8.00;;
1088;SDS011;533;53.556;9.990;2022-11-10T00:44:02;13.23;;;7.30;;
1088;SDS011;533;53.556;9.990;2022-11-10T00:46:52;16.40;;;8.57;;
1088;SDS011;533;53.556;9.990;2022-11-10T00:49:42;10.87;;;6.40;;
1088;SDS011;533;53.556;9.990;2022-11-10T00:52:33;11.33;;;6.80;;
1088;SDS011;533;53.556;9.990;2022-11-10T00:55:23;10.83;;;6.63;;
1088;SDS011;533;53.556;9.990;2022-11-10T00:58:14;13.90;;;6.60;;
1088;SDS011;533;53.556;9.990;2022-11-10T01:01:05;10.97;;;6.10;;
1088;SDS011;533;53.556;9.990;2022-11-10T01:03:56;13.23;;;6.70;;
1088;SDS011;533;53.556;9.990;2022-11-10T01:06:46;12.93;;;6.17;;
1088;SDS011;533;53.556;9.990;2022-11-10T01:09:37;16.23;;;6.93;;
1088;SDS011;533;53.556;9.990;2022-11-10T01:12:29;14.30;;;6.97;;
1088;SDS011;533;53.556;9.990;2022-11-10T01:15:20;11.50;;;6.03;;
1088;SDS011;533;53.556;9.990;2022-11-10T01:18:16;8.93;;;6.27;;
1088;SDS011;533;53.556;9.990;2022-11-10T01:21:07;10.53;;;6.03;;
1088;SDS011;533;53.556;9.990;2022-11-10T01:23:58;19.03;;;6.97;;
1088;SDS011;533;53.556;9.990;2022-11-10T01:26:49;12.30;;;6.10;;
1088;SDS011;533;53.556;9.990;2022-11-10T01:29:39;13.03;;;7.20;;
1088;SDS011;533;53.556;9.990;2022-11-10T01:32:29;13.90;;;6.90;;
1088;SDS011;533;53.556;9.990;2022-11-10T01:35:20;10.60;;;5.60;;
1088;SDS011;533;53.556;9.990;2022-11-10T01:38:11;12.10;;;6.67;;
1088;SDS011;533;53.556;9.990;2022-11-10T01:41:02;13.27;;;6.57;;
1088;SDS011;533;53.556;9.990;2022-11-10T01:44:09;11.70;;;5.83;;
1088;SDS011;533;53.556;9.990;2022-11-10T01:47:01;10.50;;;5.80;;
1088;SDS011;533;53.556;9.990;2022-11-10T01:49:51;9.37;;;5.23;;
1088;SDS011;533;53.556;9.990;2022-11-10T01:52:43;11.40;;;5.80;;
1088;SDS011;533;53.556;9.990;2022-11-10T01:55:35;9.17;;;5.27;;
1088;SDS011;533;53.556;9.990;2022-11-10T01:58:30;17.57;;;5.30;;
1088;SDS011;533;53.556;9.990;2022-11-10T02:01:22;10.30;;;5.63;;
1088;SDS011;533;53.556;9.990;2022-11-10T02:04:14;11.07;;;5.50;;
1088;SDS011;533;53.556;9.990;2022-11-10T02:07:06;17.73;;;6.73;;
1088;SDS011;533;53.556;9.990;2022-11-10T02:09:59;10.50;;;5.43;;
1088;SDS011;533;53.556;9.990;2022-11-10T02:12:51;13.97;;;6.13;;
1088;SDS011;533;53.556;9.990;2022-11-10T02:15:41;12.17;;;6.07;;
1088;SDS011;533;53.556;9.990;2022-11-10T02:18:32;15.47;;;6.97;;
1088;SDS011;533;53.556;9.990;2022-11-10T02:21:22;17.10;;;6.10;;
1088;SDS011;533;53.556;9.990;2022-11-10T02:24:12;13.43;;;5.73;;
1088;SDS011;533;53.556;9.990;2022-11-10T02:27:03;11.60;;;5.70;;
1088;SDS011;533;53.556;9.990;2022-11-10T02:29:54;12.63;;;6.40;;
1088;SDS011;533;53.556;9.990;2022-11-10T02:32:44;16.23;;;6.27;;
1088;SDS011;533;53.556;9.990;2022-11-10T02:35:35;16.17;;;7.43;;
1088;SDS011;533;53.556;9.990;2022-11-10T02:38:26;13.80;;;6.67;;
1088;SDS011;533;53.556;9.990;2022-11-10T02:41:17;13.83;;;6.57;;
1088;SDS011;533;53.556;9.990;2022-11-10T02:44:08;11.00;;;6.73;;
1088;SDS011;533;53.556;9.990;2022-11-10T02:46:58;12.83;;;6.90;;
1088;SDS011;533;53.556;9.990;2022-11-10T02:49:49;13.10;;;7.10;;
1088;SDS011;533;53.556;9.990;2022-11-10T02:52:39;12.53;;;7.40;;
1088;SDS011;533;53.556;9.990;2022-11-10T02:55:30;11.03;;;7.80;;
1088;SDS011;533;53.556;9.990;2022-11-10T02:58:20;20.77;;;8.73;;
1088;SDS011;533;53.556;9.990;2022-11-10T03:01:11;15.20;;;7.67;;
1088;SDS011;533;53.556;9.990;2022-11-10T03:04:02;14.27;;;9.40;;
1088;SDS011;533;53.556;9.990;2022-11-10T03:06:53;15.93;;;8.93;;
1088;SDS011;533;53.556;9.990;2022-11-10T03:09:44;16.73;;;8.17;;
1088;SDS011;533;53.556;9.990;2022-11-10T03:12:34;20.00;;;8.73;;
1088;SDS011;533;53.556;9.990;2022-11-10T03:15:25;17.93;;;9.23;;
1088;SDS011;533;53.556;9.990;2022-11-10T03:18:16;18.90;;;10.00;;
1088;SDS011;533;53.556;9.990;2022-11-10T03:21:06;18.30;;;9.40;;
1088;SDS011;533;53.556;9.990;2022-11-10T03:23:57;15.97;;;9.90;;
1088;SDS011;533;53.556;9.990;2022-11-10T03:26:48;19.03;;;11.20;;
1088;SDS011;533;53.556;9.990;2022-11-10T03:29:38;22.20;;;10.50;;
1088;SDS011;533;53.556;9.990;2022-11-10T03:32:28;20.43;;;10.43;;
1088;SDS011;533;53.556;9.990;2022-11-10T03:35:19;22.00;;;11.40;;
1088;SDS011;533;53.556;9.990;2022-11-10T03:38:09;19.53;;;9.97;;
1088;SDS011;533;53.556;9.990;2022-11-10T03:41:00;17.43;;;10.53;;
1088;SDS011;533;53.556;9.990;2022-11-10T03:44:09;18.20;;;10.43;;
1088;SDS011;533;53.556;9.990;2022-11-10T03:46:59;20.20;;;9.47;;
1088;SDS011;533;53.556;9.990;2022-11-10T03:49:52;14.77;;;10.17;;
1088;SDS011;533;53.556;9.990;2022-11-10T03:52:43;17.97;;;11.17;;
1088;SDS011;533;53.556;9.990;2022-11-10T03:55:34;15.93;;;10.03;;
1088;SDS011;533;53.556;9.990;2022-11-10T03:58:25;30.10;;;11.70;;
1088;SDS011;533;53.556;9.990;2022-11-10T04:01:16;22.13;;;11.37;;
1088;SDS011;533;53.556;9.990;2022-11-10T04:04:07;18.63;;;11.77;;
1088;SDS011;533;53.556;9.990;2022-11-10T04:07:19;24.07;;;14.53;;
1088;SDS011;533;53.556;9.990;2022-11-10T04:10:29;22.40;;;13.50;;
1088;SDS011;533;53.556;9.990;2022-11-10T04:13:19;25.33;;;13.73;;
1088;SDS011;533;53.556;9.990;2022-11-10T04:16:28;21.43;;;14.60;;
1088;SDS011;533;53.556;9.990;2022-11-10T04:19:18;27.17;;;16.20;;
1088;SDS011;533;53.556;9.990;2022-11-10T04:22:09;27.47;;;16.10;;
1088;SDS011;533;53.556;9.990;2022-11-10T04:25:19;21.20;;;15.60;;
1088;SDS011;533;53.556;9.990;2022-11-10T04:28:10;22.87;;;17.07;;
1088;SDS011;533;53.556;9.990;2022-11-10T04:31:00;26.00;;;16.70;;
1088;SDS011;533;53.556;9.990;2022-11-10T04:33:50;32.70;;;17.20;;
1088;SDS011;533;53.556;9.990;2022-11-10T04:36:42;25.67;;;16.00;;
1088;SDS011;533;53.556;9.990;2022-11-10T04:39:33;25.57;;;18.33;;
1088;SDS011;533;53.556;9.990;2022-11-10T04:42:23;32.87;;;19.60;;
1088;SDS011;533;53.556;9.990;2022-11-10T04:45:14;28.80;;;19.20;;
1088;SDS011;533;53.556;9.990;2022-11-10T04:48:04;30.47;;;18.40;;
1088;SDS011;533;53.556;9.990;2022-11-10T04:50:55;33.67;;;19.30;;
1088;SDS011;533;53.556;9.990;2022-11-10T04:53:46;27.33;;;19.40;;
1088;SDS011;533;53.556;9.990;2022-11-10T04:56:36;34.13;;;19.73;;
1088;SDS011;533;53.556;9.990;2022-11-10T04:59:27;32.60;;;19.57;;
1088;SDS011;533;53.556;9.990;2022-11-10T05:02:17;28.87;;;18.97;;
1088;SDS011;533;53.556;9.990;2022-11-10T05:05:08;27.50;;;18.93;;
1088;SDS011;533;53.556;9.990;2022-11-10T05:07:58;33.97;;;21.53;;
1088;SDS011;533;53.556;9.990;2022-11-10T05:10:49;26.00;;;19.50;;
1088;SDS011;533;53.556;9.990;2022-11-10T05:13:40;29.67;;;16.87;;
1088;SDS011;533;53.556;9.990;2022-11-10T05:16:31;34.53;;;19.97;;
1088;SDS011;533;53.556;9.990;2022-11-10T05:19:21;31.90;;;19.40;;
1088;SDS011;533;53.556;9.990;2022-11-10T05:22:12;34.40;;;18.37;;
1088;SDS011;533;53.556;9.990;2022-11-10T05:25:03;30.67;;;18.63;;
1088;SDS011;533;53.556;9.990;2022-11-10T05:27:54;26.77;;;18.30;;
1088;SDS011;533;53.556;9.990;2022-11-10T05:30:44;33.10;;;17.60;;
1088;SDS011;533;53.556;9.990;2022-11-10T05:33:35;27.60;;;16.83;;
1088;SDS011;533;53.556;9.990;2022-11-10T05:36:26;30.33;;;19.27;;
1088;SDS011;533;53.556;9.990;2022-11-10T05:39:17;31.00;;;17.53;;
1088;SDS011;533;53.556;9.990;2022-11-10T05:42:07;29.03;;;17.97;;
1088;SDS011;533;53.556;9.990;2022-11-10T05:44:57;38.70;;;18.03;;
1088;SDS011;533;53.556;9.990;2022-11-10T05:47:48;32.13;;;17.37;;
1088;SDS011;533;53.556;9.990;2022-11-10T05:50:38;31.23;;;17.10;;
1088;SDS011;533;53.556;9.990;2022-11-10T05:53:29;29.43;;;17.47;;
1088;SDS011;533;53.556;9.990;2022-11-10T05:56:20;32.70;;;17.90;;
1088;SDS011;533;53.556;9.990;2022-11-10T05:59:11;26.30;;;14.97;;
1088;SDS011;533;53.556;9.990;2022-11-10T06:02:01;26.50;;;15.63;;
1088;SDS011;533;53.556;9.990;2022-11-10T06:04:52;28.03;;;15.60;;
1088;SDS011;533;53.556;9.990;2022-11-10T06:07:43;24.53;;;15.50;;
1088;SDS011;533;53.556;9.990;2022-11-10T06:10:34;20.57;;;14.90;;
1088;SDS011;533;53.556;9.990;2022-11-10T06:13:25;26.43;;;16.07;;
1088;SDS011;533;53.556;9.990;2022-11-10T06:16:15;18.67;;;13.50;;
1088;SDS011;533;53.556;9.990;2022-11-10T06:19:06;27.03;;;14.50;;
1088;SDS011;533;53.556;9.990;2022-11-10T06:21:56;29.17;;;16.57;;
1088;SDS011;533;53.556;9.990;2022-11-10T06:24:55;21.63;;;12.90;;
1088;SDS011;533;53.556;9.990;2022-11-10T06:27:45;22.87;;;13.63;;
1088;SDS011;533;53.556;9.990;2022-11-10T06:30:36;25.00;;;12.90;;
1088;SDS011;533;53.556;9.990;2022-11-10T06:33:27;20.73;;;12.90;;
1088;SDS011;533;53.556;9.990;2022-11-10T06:36:17;20.50;;;12.40;;
1088;SDS011;533;53.556;9.990;2022-11-10T06:39:08;27.40;;;12.23;;
1088;SDS011;533;53.556;9.990;2022-11-10T06:41:58;20.87;;;15.03;;
1088;SDS011;533;53.556;9.990;2022-11-10T06:44:49;18.63;;;11.90;;
1088;SDS011;533;53.556;9.990;2022-11-10T06:47:40;20.47;;;11.60;;
1088;SDS011;533;53.556;9.990;2022-11-10T06:50:31;23.87;;;12.80;;
1088;SDS011;533;53.556;9.990;2022-11-10T06:53:21;30.57;;;11.20;;
1088;SDS011;533;53.556;9.990;2022-11-10T06:56:16;24.53;;;12.60;;
1088;SDS011;533;53.556;9.990;2022-11-10T06:59:06;24.67;;;13.80;;
1088;SDS011;533;53.556;9.990;2022-11-10T07:01:57;20.40;;;11.10;;
1088;SDS011;533;53.556;9.990;2022-11-10T07:04:48;21.50;;;13.30;;
1088;SDS011;533;53.556;9.990;2022-11-10T07:07:40;22.40;;;12.00;;
1088;SDS011;533;53.556;9.990;2022-11-10T07:10:31;27.93;;;13.33;;
1088;SDS011;533;53.556;9.990;2022-11-10T07:13:22;23.27;;;13.83;;
1088;SDS011;533;53.556;9.990;2022-11-10T07:16:14;20.70;;;12.13;;
1088;SDS011;533;53.556;9.990;2022-11-10T07:19:12;24.53;;;14.07;;
1088;SDS011;533;53.556;9.990;2022-11-10T07:22:02;38.73;;;18.40;;
1088;SDS011;533;53.556;9.990;2022-11-10T07:25:00;26.40;;;17.60;;
1088;SDS011;533;53.556;9.990;2022-11-10T07:27:56;33.43;;;16.87;;
1088;SDS011;533;53.556;9.990;2022-11-10T07:30:48;29.50;;;15.57;;
1088;SDS011;533;53.556;9.990;2022-11-10T07:33:38;27.23;;;15.33;;
1088;SDS011;533;53.556;9.990;2022-11-10T07:36:29;31.23;;;14.80;;
1088;SDS011;533;53.556;9.990;2022-11-10T07:39:19;26.23;;;15.40;;
1088;SDS011;533;53.556;9.990;2022-11-10T07:42:10;29.43;;;16.40;;
1088;SDS011;533;53.556;9.990;2022-11-10T07:45:01;27.17;;;15.47;;
1088;SDS011;533;53.556;9.990;2022-11-10T07:47:56;30.80;;;17.07;;
1088;SDS011;533;53.556;9.990;2022-11-10T07:50:50;32.33;;;15.73;;
1088;SDS011;533;53.556;9.990;2022-11-10T07:53:41;28.60;;;16.33;;
1088;SDS011;533;53.556;9.990;2022-11-10T07:56:33;31.17;;;21.07;;
1088;SDS011;533;53.556;9.990;2022-11-10T07:59:23;24.73;;;14.80;;
1088;SDS011;533;53.556;9.990;2022-11-10T08:02:13;30.87;;;17.27;;
1088;SDS011;533;53.556;9.990;2022-11-10T08:05:04;28.33;;;16.80;;
1088;SDS011;533;53.556;9.990;2022-11-10T08:07:55;32.07;;;16.83;;
1088;SDS011;533;53.556;9.990;2022-11-10T08:10:46;26.77;;;16.40;;
1088;SDS011;533;53.556;9.990;2022-11-10T08:13:37;25.87;;;16.60;;
1088;SDS011;533;53.556;9.990;2022-11-10T08:16:28;26.07;;;15.53;;
1088;SDS011;533;53.556;9.990;2022-11-10T08:19:19;33.87;;;16.00;;
1088;SDS011;533;53.556;9.990;2022-11-10T08:22:09;30.73;;;15.60;;
1088;SDS011;533;53.556;9.990;2022-11-10T08:25:00;27.63;;;15.40;;
1088;SDS011;533;53.556;9.990;2022-11-10T08:28:00;30.27;;;16.93;;
1088;SDS011;533;53.556;9.990;2022-11-10T08:30:57;36.47;;;15.90;;
1088;SDS011;533;53.556;9.990;2022-11-10T08:33:54;28.67;;;15.60;;
1088;SDS011;533;53.556;9.990;2022-11-10T08:36:44;32.07;;;16.50;;
1088;SDS011;533;53.556;9.990;2022-11-10T08:39:35;35.57;;;16.30;;
1088;SDS011;533;53.556;9.990;2022-11-10T08:42:29;26.30;;;15.30;;
1088;SDS011;533;53.556;9.990;2022-11-10T08:45:20;31.77;;;16.80;;
1088;SDS011;533;53.556;9.990;2022-11-10T08:48:12;28.17;;;14.97;;
1088;SDS011;533;53.556;9.990;2022-11-10T08:51:05;28.30;;;16.00;;
1088;SDS011;533;53.556;9.990;2022-11-10T08:53:56;29.47;;;16.10;;
1088;SDS011;533;53.556;9.990;2022-11-10T08:56:47;27.97;;;17.33;;
1088;SDS011;533;53.556;9.990;2022-11-10T08:59:38;23.93;;;15.77;;
1088;SDS011;533;53.556;9.990;2022-11-10T09:02:32;34.30;;;17.73;;
1088;SDS011;533;53.556;9.990;2022-11-10T09:05:23;27.03;;;17.20;;
1088;SDS011;533;53.556;9.990;2022-11-10T09:08:14;33.70;;;18.30;;
1088;SDS011;533;53.556;9.990;2022-11-10T09:11:05;33.27;;;16.73;;
1088;SDS011;533;53.556;9.990;2022-11-10T09:13:55;31.77;;;16.53;;
1088;SDS011;533;53.556;9.990;2022-11-10T09:16:46;31.10;;;16.70;;
1088;SDS011;533;53.556;9.990;2022-11-10T09:19:36;34.20;;;17.60;;
1088;SDS011;533;53.556;9.990;2022-11-10T09:22:27;29.20;;;16.57;;
1088;SDS011;533;53.556;9.990;2022-11-10T09:25:18;30.97;;;18.13;;
1088;SDS011;533;53.556;9.990;2022-11-10T09:28:12;29.43;;;17.17;;
1088;SDS011;533;53.556;9.990;2022-11-10T09:31:03;31.00;;;16.53;;
1088;SDS011;533;53.556;9.990;2022-11-10T09:33:54;28.17;;;16.63;;
1088;SDS011;533;53.556;9.990;2022-11-10T09:36:44;30.50;;;16.87;;
1088;SDS011;533;53.556;9.990;2022-11-10T09:39:35;25.90;;;16.20;;
1088;SDS011;533;53.556;9.990;2022-11-10T09:42:43;31.23;;;17.87;;
1088;SDS011;533;53.556;9.990;2022-11-10T09:45:36;26.37;;;15.43;;
1088;SDS011;533;53.556;9.990;2022-11-10T09:48:30;28.10;;;15.70;;
1088;SDS011;533;53.556;9.990;2022-11-10T09:51:25;30.50;;;15.77;;
1088;SDS011;533;53.556;9.990;2022-11-10T09:57:21;26.20;;;16.30;;
1088;SDS011;533;53.556;9.990;2022-11-10T10:00:15;25.90;;;17.07;;
1088;SDS011;533;53.556;9.990;2022-11-10T10:03:07;26.87;;;15.60;;
1088;SDS011;533;53.556;9.990;2022-11-10T10:15:15;30.83;;;17.37;;
1088;SDS011;533;53.556;9.990;2022-11-10T10:24:45;31.43;;;15.50;;
1088;SDS011;533;53.556;9.990;2022-11-10T10:27:37;27.27;;;15.50;;
1088;SDS011;533;53.556;9.990;2022-11-10T10:30:29;31.80;;;16.20;;
1088;SDS011;533;53.556;9.990;2022-11-10T10:33:20;26.70;;;16.33;;
1088;SDS011;533;53.556;9.990;2022-11-10T10:36:30;25.57;;;15.57;;
1088;SDS011;533;53.556;9.990;2022-11-10T10:39:29;22.80;;;13.90;;
1088;SDS011;533;53.556;9.990;2022-11-10T10:45:21;28.17;;;15.17;;
1088;SDS011;533;53.556;9.990;2022-11-10T10:48:26;26.63;;;16.73;;
1088;SDS011;533;53.556;9.990;2022-11-10T10:51:27;27.67;;;14.27;;
1088;SDS011;533;53.556;9.990;2022-11-10T10:54:29;21.00;;;12.93;;
1088;SDS011;533;53.556;9.990;2022-11-10T10:57:27;24.27;;;13.60;;
1088;SDS011;533;53.556;9.990;2022-11-10T11:00:22;27.07;;;14.70;;
1088;SDS011;533;53.556;9.990;2022-11-10T11:06:32;25.23;;;14.60;;
1088;SDS011;533;53.556;9.990;2022-11-10T11:09:24;29.10;;;12.57;;
1088;SDS011;533;53.556;9.990;2022-11-10T11:12:29;24.97;;;13.80;;
1088;SDS011;533;53.556;9.990;2022-11-10T11:15:25;23.23;;;12.60;;
1088;SDS011;533;53.556;9.990;2022-11-10T11:18:19;27.03;;;13.07;;
1088;SDS011;533;53.556;9.990;2022-11-10T11:21:15;28.03;;;12.93;;
1088;SDS011;533;53.556;9.990;2022-11-10T11:24:28;26.93;;;11.97;;
1088;SDS011;533;53.556;9.990;2022-11-10T11:27:22;24.60;;;11.77;;
1088;SDS011;533;53.556;9.990;2022-11-10T11:30:18;25.33;;;13.17;;
1088;SDS011;533;53.556;9.990;2022-11-10T11:36:25;33.90;;;14.40;;
1088;SDS011;533;53.556;9.990;2022-11-10T11:40:00;25.93;;;13.60;;
1088;SDS011;533;53.556;9.990;2022-11-10T11:46:10;21.47;;;12.23;;
1088;SDS011;533;53.556;9.990;2022-11-10T11:58:44;27.80;;;12.97;;
1088;SDS011;533;53.556;9.990;2022-11-10T12:11:55;27.97;;;13.30;;
1088;SDS011;533;53.556;9.990;2022-11-10T12:30:16;19.30;;;10.50;;
1088;SDS011;533;53.556;9.990;2022-11-10T12:33:15;21.80;;;11.70;;
1088;SDS011;533;53.556;9.990;2022-11-10T12:36:25;23.60;;;12.13;;
1088;SDS011;533;53.556;9.990;2022-11-10T12:39:20;22.30;;;9.20;;
1088;SDS011;533;53.556;9.990;2022-11-10T12:42:14;17.10;;;10.87;;
1088;SDS011;533;53.556;9.990;2022-11-10T12:48:26;20.87;;;9.57;;
1088;SDS011;533;53.556;9.990;2022-11-10T12:51:27;24.13;;;10.83;;
1088;SDS011;533;53.556;9.990;2022-11-10T12:54:20;17.43;;;8.70;;
1088;SDS011;533;53.556;9.990;2022-11-10T12:57:16;29.27;;;8.30;;
1088;SDS011;533;53.556;9.990;2022-11-10T13:06:26;16.37;;;8.60;;
1088;SDS011;533;53.556;9.990;2022-11-10T13:09:31;18.33;;;9.07;;
1088;SDS011;533;53.556;9.990;2022-11-10T13:12:23;15.13;;;9.50;;
1088;SDS011;533;53.556;9.990;2022-11-10T13:21:44;18.10;;;9.37;;
1088;SDS011;533;53.556;9.990;2022-11-10T13:24:41;21.27;;;9.43;;
1088;SDS011;533;53.556;9.990;2022-11-10T13:30:41;15.60;;;8.87;;
1088;SDS011;533;53.556;9.990;2022-11-10T13:33:35;25.23;;;9.43;;
1088;SDS011;533;53.556;9.990;2022-11-10T13:39:37;21.43;;;9.10;;
1088;SDS011;533;53.556;9.990;2022-11-10T13:42:28;19.33;;;8.13;;
1088;SDS011;533;53.556;9.990;2022-11-10T13:45:28;14.20;;;9.07;;
1088;SDS011;533;53.556;9.990;2022-11-10T13:48:30;18.10;;;8.20;;
1088;SDS011;533;53.556;9.990;2022-11-10T13:51:26;18.37;;;8.60;;
1088;SDS011;533;53.556;9.990;2022-11-10T13:57:23;17.37;;;8.73;;
1088;SDS011;533;53.556;9.990;2022-11-10T14:03:17;14.60;;;7.37;;
1088;SDS011;533;53.556;9.990;2022-11-10T14:06:44;14.93;;;8.23;;
1088;SDS011;533;53.556;9.990;2022-11-10T14:09:38;13.53;;;8.00;;
1088;SDS011;533;53.556;9.990;2022-11-10T14:12:36;16.60;;;7.20;;
1088;SDS011;533;53.556;9.990;2022-11-10T14:15:39;21.90;;;8.77;;
1088;SDS011;533;53.556;9.990;2022-11-10T14:18:38;13.20;;;7.00;;
1088;SDS011;533;53.556;9.990;2022-11-10T14:21:38;16.13;;;7.33;;
1088;SDS011;533;53.556;9.990;2022-11-10T14:24:36;14.53;;;6.70;;
1088;SDS011;533;53.556;9.990;2022-11-10T14:27:32;18.10;;;8.17;;
1088;SDS011;533;53.556;9.990;2022-11-10T14:33:18;12.87;;;7.07;;
1088;SDS011;533;53.556;9.990;2022-11-10T14:36:10;15.50;;;7.93;;
1088;SDS011;533;53.556;9.990;2022-11-10T14:39:02;15.23;;;7.53;;
1088;SDS011;533;53.556;9.990;2022-11-10T14:41:54;17.73;;;7.80;;
1088;SDS011;533;53.556;9.990;2022-11-10T14:44:45;21.57;;;7.60;;
1088;SDS011;533;53.556;9.990;2022-11-10T14:47:36;9.23;;;5.70;;
1088;SDS011;533;53.556;9.990;2022-11-10T14:50:30;17.30;;;8.00;;
1088;SDS011;533;53.556;9.990;2022-11-10T14:53:30;17.90;;;7.60;;
1088;SDS011;533;53.556;9.990;2022-11-10T14:56:26;7.67;;;5.40;;
1088;SDS011;533;53.556;9.990;2022-11-10T14:59:18;14.03;;;6.43;;
1088;SDS011;533;53.556;9.990;2022-11-10T15:02:12;13.37;;;7.00;;
1088;SDS011;533;53.556;9.990;2022-11-10T15:05:04;16.50;;;6.20;;
1088;SDS011;533;53.556;9.990;2022-11-10T15:07:55;20.10;;;5.67;;
1088;SDS011;533;53.556;9.990;2022-11-10T15:10:47;21.60;;;6.30;;
1088;SDS011;533;53.556;9.990;2022-11-10T15:13:40;13.20;;;4.47;;
1088;SDS011;533;53.556;9.990;2022-11-10T15:16:31;19.30;;;7.00;;
1088;SDS011;533;53.556;9.990;2022-11-10T15:22:26;17.17;;;5.87;;
1088;SDS011;533;53.556;9.990;2022-11-10T15:25:22;13.53;;;6.10;;
1088;SDS011;533;53.556;9.990;2022-11-10T15:28:21;15.57;;;5.20;;
1088;SDS011;533;53.556;9.990;2022-11-10T15:34:29;11.53;;;6.13;;
1088;SDS011;533;53.556;9.990;2022-11-10T15:40:27;10.47;;;4.00;;
1088;SDS011;533;53.556;9.990;2022-11-10T15:46:18;12.20;;;4.70;;
1088;SDS011;533;53.556;9.990;2022-11-10T15:49:16;7.70;;;3.63;;
1088;SDS011;533;53.556;9.990;2022-11-10T15:52:16;11.33;;;4.87;;
1088;SDS011;533;53.556;9.990;2022-11-10T15:55:21;15.70;;;4.23;;
1088;SDS011;533;53.556;9.990;2022-11-10T15:58:16;15.33;;;4.80;;
1088;SDS011;533;53.556;9.990;2022-11-10T16:01:11;10.57;;;4.50;;
1088;SDS011;533;53.556;9.990;2022-11-10T16:04:02;10.70;;;4.27;;
1088;SDS011;533;53.556;9.990;2022-11-10T16:06:53;14.43;;;4.83;;
1088;SDS011;533;53.556;9.990;2022-11-10T16:09:44;8.90;;;3.87;;
1088;SDS011;533;53.556;9.990;2022-11-10T16:12:34;16.03;;;4.47;;
1088;SDS011;533;53.556;9.990;2022-11-10T16:15:25;11.23;;;4.17;;
1088;SDS011;533;53.556;9.990;2022-11-10T16:18:16;16.23;;;3.77;;
1088;SDS011;533;53.556;9.990;2022-11-10T16:21:10;10.47;;;4.10;;
1088;SDS011;533;53.556;9.990;2022-11-10T16:24:02;9.33;;;4.47;;
1088;SDS011;533;53.556;9.990;2022-11-10T16:26:53;15.13;;;4.80;;
1088;SDS011;533;53.556;9.990;2022-11-10T16:29:44;7.07;;;3.77;;
1088;SDS011;533;53.556;9.990;2022-11-10T16:32:34;8.73;;;3.90;;
1088;SDS011;533;53.556;9.990;2022-11-10T16:35:25;9.70;;;3.90;;
1088;SDS011;533;53.556;9.990;2022-11-10T16:41:14;11.83;;;3.77;;
1088;SDS011;533;53.556;9.990;2022-11-10T16:44:12;9.20;;;3.77;;
1088;SDS011;533;53.556;9.990;2022-11-10T16:47:04;14.27;;;5.70;;
1088;SDS011;533;53.556;9.990;2022-11-10T16:49:54;11.40;;;4.67;;
1088;SDS011;533;53.556;9.990;2022-11-10T16:52:45;15.70;;;3.73;;
1088;SDS011;533;53.556;9.990;2022-11-10T16:55:36;10.67;;;3.70;;
1088;SDS011;533;53.556;9.990;2022-11-10T16:58:27;10.40;;;4.27;;
1088;SDS011;533;53.556;9.990;2022-11-10T17:01:19;11.80;;;3.60;;
1088;SDS011;533;53.556;9.990;2022-11-10T17:04:11;10.53;;;4.03;;
1088;SDS011;533;53.556;9.990;2022-11-10T17:07:02;16.67;;;4.87;;
1088;SDS011;533;53.556;9.990;2022-11-10T17:09:54;12.60;;;3.70;;
1088;SDS011;533;53.556;9.990;2022-11-10T17:12:46;16.17;;;4.23;;
1088;SDS011;533;53.556;9.990;2022-11-10T17:15:36;11.90;;;4.00;;
1088;SDS011;533;53.556;9.990;2022-11-10T17:18:27;11.70;;;3.87;;
1088;SDS011;533;53.556;9.990;2022-11-10T17:21:18;14.60;;;3.80;;
1088;SDS011;533;53.556;9.990;2022-11-10T17:24:12;14.40;;;3.97;;
1088;SDS011;533;53.556;9.990;2022-11-10T17:27:03;13.10;;;4.17;;
1088;SDS011;533;53.556;9.990;2022-11-10T17:29:54;13.20;;;4.17;;
1088;SDS011;533;53.556;9.990;2022-11-10T17:32:44;13.20;;;4.50;;
1088;SDS011;533;53.556;9.990;2022-11-10T17:35:54;16.03;;;3.40;;
1088;SDS011;533;53.556;9.990;2022-11-10T17:38:45;13.63;;;4.00;;
1088;SDS011;533;53.556;9.990;2022-11-10T17:41:36;8.17;;;3.03;;
1088;SDS011;533;53.556;9.990;2022-11-10T17:44:26;9.47;;;3.33;;
1088;SDS011;533;53.556;9.990;2022-11-10T17:47:17;14.43;;;3.70;;
1088;SDS011;533;53.556;9.990;2022-11-10T17:50:08;19.67;;;4.80;;
1088;SDS011;533;53.556;9.990;2022-11-10T17:56:12;12.00;;;3.40;;
1088;SDS011;533;53.556;9.990;2022-11-10T17:59:03;9.37;;;3.87;;
1088;SDS011;533;53.556;9.990;2022-11-10T18:01:54;11.43;;;3.60;;
1088;SDS011;533;53.556;9.990;2022-11-10T18:04:45;15.23;;;4.20;;
1088;SDS011;533;53.556;9.990;2022-11-10T18:07:35;13.20;;;3.93;;
1088;SDS011;533;53.556;9.990;2022-11-10T18:10:26;8.43;;;3.97;;
1088;SDS011;533;53.556;9.990;2022-11-10T18:13:17;15.67;;;4.70;;
1088;SDS011;533;53.556;9.990;2022-11-10T18:16:08;13.50;;;3.63;;
1088;SDS011;533;53.556;9.990;2022-11-10T18:19:00;17.47;;;5.30;;
1088;SDS011;533;53.556;9.990;2022-11-10T18:21:51;10.43;;;4.13;;
1088;SDS011;533;53.556;9.990;2022-11-10T18:24:42;12.80;;;3.90;;
1088;SDS011;533;53.556;9.990;2022-11-10T18:27:32;16.03;;;4.97;;
1088;SDS011;533;53.556;9.990;2022-11-10T18:30:23;17.93;;;3.63;;
1088;SDS011;533;53.556;9.990;2022-11-10T18:33:13;11.00;;;4.17;;
1088;SDS011;533;53.556;9.990;2022-11-10T18:36:04;13.73;;;4.03;;
1088;SDS011;533;53.556;9.990;2022-11-10T18:38:55;14.37;;;5.97;;
1088;SDS011;533;53.556;9.990;2022-11-10T18:41:45;16.83;;;4.50;;
1088;SDS011;533;53.556;9.990;2022-11-10T18:44:38;12.80;;;4.30;;
1088;SDS011;533;53.556;9.990;2022-11-10T18:47:29;12.60;;;3.57;;
1088;SDS011;533;53.556;9.990;2022-11-10T18:50:19;13.30;;;4.10;;
1088;SDS011;533;53.556;9.990;2022-11-10T18:53:10;26.83;;;4.93;;
1088;SDS011;533;53.556;9.990;2022-11-10T18:56:01;12.60;;;3.50;;
1088;SDS011;533;53.556;9.990;2022-11-10T18:58:51;13.03;;;3.93;;
1088;SDS011;533;53.556;9.990;2022-11-10T19:01:46;13.40;;;5.40;;
1088;SDS011;533;53.556;9.990;2022-11-10T19:04:36;8.70;;;4.00;;
1088;SDS011;533;53.556;9.990;2022-11-10T19:07:27;12.23;;;3.63;;
1088;SDS011;533;53.556;9.990;2022-11-10T19:10:18;10.03;;;4.00;;
1088;SDS011;533;53.556;9.990;2022-11-10T19:13:09;12.83;;;5.00;;
1088;SDS011;533;53.556;9.990;2022-11-10T19:16:06;22.57;;;4.17;;
1088;SDS011;533;53.556;9.990;2022-11-10T19:18:57;9.03;;;3.47;;
1088;SDS011;533;53.556;9.990;2022-11-10T19:21:49;8.13;;;3.47;;
1088;SDS011;533;53.556;9.990;2022-11-10T19:24:39;14.30;;;3.80;;
1088;SDS011;533;53.556;9.990;2022-11-10T19:27:49;11.33;;;3.53;;
1088;SDS011;533;53.556;9.990;2022-11-10T19:30:40;15.57;;;4.50;;
1088;SDS011;533;53.556;9.990;2022-11-10T19:33:31;13.57;;;3.80;;
1088;SDS011;533;53.556;9.990;2022-11-10T19:36:24;10.03;;;3.27;;
1088;SDS011;533;53.556;9.990;2022-11-10T19:39:16;10.53;;;3.50;;
1088;SDS011;533;53.556;9.990;2022-11-10T19:42:07;7.50;;;2.93;;
1088;SDS011;533;53.556;9.990;2022-11-10T19:44:57;8.27;;;3.17;;